Time;durP1;ratioP1;P1;durP2;ratioP2;P2;SDS_P1;SDS_P2;PMS_P1;PMS_P2;Temp;Humidity;BMP_temperature;BMP_pressure;BME280_temperature;BME280_humidity;BME280_pressure;Samples;Min_cycle;Max_cycle;Signal;HPM_P1;HPM_P2
2022/05/22 00:02:05;;;;;;;9.85;3.63;;;10.70;99.90;;;;;;5032309;28;20057;-89
2022/05/22 00:04:31;;;;;;;6.60;2.97;;;10.60;99.90;;;;;;5032261;28;20064;-89
2022/05/22 00:06:57;;;;;;;5.95;3.20;;;10.70;99.90;;;;;;5033098;28;20038;-89
2022/05/22 00:09:23;;;;;;;7.72;3.17;;;10.80;99.90;;;;;;5031970;28;20047;-88
2022/05/22 00:11:49;;;;;;;7.25;2.92;;;10.50;99.90;;;;;;5031761;28;20053;-89
2022/05/22 00:14:16;;;;;;;7.30;3.25;;;10.60;99.90;;;;;;5015946;28;20103;-88
2022/05/22 00:16:46;;;;;;;5.82;2.95;;;10.50;99.90;;;;;;5031820;28;20409;-87
2022/05/22 00:19:15;;;;;;;5.55;3.25;;;10.50;99.90;;;;;;5033417;28;20053;-88
2022/05/22 00:21:42;;;;;;;8.52;3.30;;;10.70;99.90;;;;;;5033209;28;20072;-87
2022/05/22 00:24:09;;;;;;;7.88;3.25;;;10.60;99.90;;;;;;5032152;28;20132;-88
2022/05/22 00:26:35;;;;;;;7.18;3.15;;;10.70;99.90;;;;;;5032920;28;20049;-88
2022/05/22 00:29:01;;;;;;;8.68;3.28;;;10.40;99.90;;;;;;5034801;28;20045;-88
2022/05/22 00:31:27;;;;;;;9.95;3.63;;;11.30;99.90;;;;;;5036868;28;20052;-88
2022/05/22 00:33:53;;;;;;;11.15;3.85;;;10.40;99.90;;;;;;5036840;28;20129;-87
2022/05/22 00:36:19;;;;;;;7.75;3.70;;;10.40;99.90;;;;;;5036674;28;20133;-88
2022/05/22 00:38:45;;;;;;;11.32;4.07;;;10.40;99.90;;;;;;5035605;28;20568;-85
2022/05/22 00:41:11;;;;;;;6.22;3.53;;;10.50;99.90;;;;;;5035722;28;20136;-83
2022/05/22 00:43:43;;;;;;;8.23;3.63;;;10.30;99.90;;;;;;5036760;28;20120;-88
2022/05/22 00:46:13;;;;;;;7.22;3.63;;;10.50;99.90;;;;;;5035830;28;20168;-87
2022/05/22 00:48:42;;;;;;;6.07;3.60;;;10.30;99.90;;;;;;5035610;28;20049;-86
2022/05/22 00:51:17;;;;;;;7.90;3.22;;;10.20;99.90;;;;;;5036538;28;20045;-84
2022/05/22 00:54:08;;;;;;;6.05;3.15;;;10.20;99.90;;;;;;5035057;28;20151;-87
2022/05/22 00:56:43;;;;;;;8.85;3.10;;;10.20;99.90;;;;;;5029190;28;20049;-87
2022/05/22 00:59:14;;;;;;;7.68;3.35;;;10.30;99.90;;;;;;5036365;28;20512;-89
2022/05/22 01:01:40;;;;;;;7.28;3.50;;;10.10;99.90;;;;;;5018932;28;20080;-86
2022/05/22 01:04:13;;;;;;;6.13;3.67;;;10.40;99.90;;;;;;5036339;28;20049;-86
2022/05/22 01:06:39;;;;;;;;;;;10.30;99.90;;;;;;5035795;28;20125;-86
2022/05/22 01:09:05;;;;;;;9.63;3.55;;;10.40;99.90;;;;;;5035377;28;19972;-88
2022/05/22 01:11:36;;;;;;;8.20;3.47;;;10.10;99.90;;;;;;5035169;28;20056;-88
2022/05/22 01:14:09;;;;;;;6.85;3.83;;;10.00;99.90;;;;;;5018975;28;20049;-88
2022/05/22 01:16:34;;;;;;;;;;;10.00;99.90;;;;;;5036656;28;20132;-89
2022/05/22 01:19:00;;;;;;;7.78;3.95;;;10.10;99.90;;;;;;5036165;28;20007;-88
2022/05/22 01:21:30;;;;;;;9.90;3.72;;;10.20;99.90;;;;;;5036066;28;20041;-87
2022/05/22 01:23:56;;;;;;;8.52;3.97;;;10.00;99.90;;;;;;5035904;28;20045;-86
2022/05/22 01:26:25;;;;;;;8.95;3.80;;;10.20;99.90;;;;;;5035365;28;20056;-87
2022/05/22 01:28:51;;;;;;;7.40;3.33;;;9.90;99.90;;;;;;5034857;28;20458;-88
2022/05/22 01:31:17;;;;;;;8.73;3.47;;;10.00;99.90;;;;;;5035559;28;20088;-87
2022/05/22 01:33:43;;;;;;;6.68;3.22;;;10.10;99.90;;;;;;5035860;28;20442;-86
2022/05/22 01:36:09;;;;;;;6.88;3.58;;;10.20;99.90;;;;;;5034460;28;20049;-87
2022/05/22 01:38:36;;;;;;;9.77;3.63;;;10.10;99.90;;;;;;5035795;28;20428;-86
2022/05/22 01:41:03;;;;;;;5.35;3.05;;;10.50;99.90;;;;;;5034528;28;20053;-87
2022/05/22 01:43:29;;;;;;;9.02;4.00;;;9.80;99.90;;;;;;5034198;28;20074;-86
2022/05/22 01:45:55;;;;;;;6.07;3.35;;;9.90;99.90;;;;;;5034598;28;20065;-86
2022/05/22 01:48:24;;;;;;;8.75;3.65;;;10.00;99.90;;;;;;5034366;28;20075;-85
2022/05/22 01:50:51;;;;;;;6.85;3.42;;;10.10;99.90;;;;;;5034468;28;20053;-86
2022/05/22 01:53:19;;;;;;;5.80;3.70;;;10.00;99.90;;;;;;5035084;28;20058;-85
2022/05/22 01:55:46;;;;;;;7.70;3.58;;;9.90;99.90;;;;;;5034725;28;20504;-86
2022/05/22 01:58:12;;;;;;;6.05;3.47;;;9.90;99.90;;;;;;5034172;28;20045;-85
2022/05/22 02:00:38;;;;;;;6.22;3.97;;;9.70;99.90;;;;;;5034134;28;20052;-86
2022/05/22 02:03:04;;;;;;;7.72;3.53;;;9.70;99.90;;;;;;5034280;28;20046;-85
2022/05/22 02:05:30;;;;;;;5.50;4.22;;;9.70;99.90;;;;;;5017715;28;20092;-85
2022/05/22 02:10:40;;;;;;;8.70;3.83;;;9.90;99.90;;;;;;5034910;28;20068;-85
2022/05/22 02:13:07;;;;;;;6.68;3.45;;;9.80;99.90;;;;;;5035508;28;20049;-85
2022/05/22 02:15:33;;;;;;;6.43;3.75;;;9.90;99.90;;;;;;5034080;28;20049;-86
2022/05/22 02:17:59;;;;;;;7.80;3.65;;;9.70;99.90;;;;;;5033840;28;20045;-85
2022/05/22 02:20:26;;;;;;;6.75;3.28;;;10.40;99.90;;;;;;5034708;28;20049;-84
2022/05/22 02:22:55;;;;;;;6.50;3.58;;;9.80;99.90;;;;;;5033796;28;20374;-86
2022/05/22 02:25:27;;;;;;;6.95;3.63;;;9.70;99.90;;;;;;5034382;28;20452;-85
2022/05/22 02:27:53;;;;;;;9.07;4.10;;;9.40;99.90;;;;;;5034580;28;20512;-85
2022/05/22 02:30:22;;;;;;;5.75;3.33;;;9.40;99.90;;;;;;5033445;28;20128;-84
2022/05/22 02:32:48;;;;;;;8.55;4.15;;;9.50;99.90;;;;;;5033289;28;20042;-86
2022/05/22 02:35:14;;;;;;;6.72;4.28;;;9.90;99.90;;;;;;5017174;28;20604;-86
2022/05/22 02:37:43;;;;;;;8.65;4.05;;;9.40;99.90;;;;;;5032894;28;20497;-86
2022/05/22 02:40:10;;;;;;;6.60;3.88;;;9.60;99.90;;;;;;5033827;28;20400;-85
2022/05/22 02:42:46;;;;;;;7.10;3.78;;;9.30;99.90;;;;;;5034195;28;20537;-86
2022/05/22 02:45:14;;;;;;;10.25;4.25;;;9.40;99.90;;;;;;5033395;28;20054;-85
2022/05/22 02:47:40;;;;;;;8.45;4.25;;;9.40;99.90;;;;;;5033273;28;20048;-84
2022/05/22 02:50:07;;;;;;;7.88;3.80;;;9.50;99.90;;;;;;5033134;28;20103;-84
2022/05/22 02:52:33;;;;;;;8.40;4.00;;;9.20;99.90;;;;;;5033685;28;20069;-84
2022/05/22 02:54:59;;;;;;;9.77;4.00;;;9.30;99.90;;;;;;5033774;28;20046;-83
2022/05/22 02:57:25;;;;;;;5.45;3.72;;;9.40;99.90;;;;;;5032849;28;20401;-85
2022/05/22 02:59:53;;;;;;;9.38;4.07;;;9.20;99.90;;;;;;5034020;28;20080;-85
2022/05/22 03:02:19;;;;;;;5.32;3.45;;;9.20;99.90;;;;;;5033956;28;20094;-85
2022/05/22 03:04:45;;;;;;;7.97;4.28;;;9.30;99.90;;;;;;5033882;28;20056;-85
2022/05/22 03:07:13;;;;;;;6.05;3.63;;;9.20;99.90;;;;;;5033976;28;20048;-84
2022/05/22 03:09:41;;;;;;;7.88;4.10;;;9.10;99.90;;;;;;5033094;28;20393;-85
2022/05/22 03:12:14;;;;;;;7.43;4.18;;;9.50;99.90;;;;;;5034075;28;20132;-85
2022/05/22 03:14:47;;;;;;;7.40;3.75;;;9.00;99.90;;;;;;5033137;28;20132;-84
2022/05/22 03:17:13;;;;;;;6.32;3.85;;;9.30;99.90;;;;;;5032372;28;20501;-82
2022/05/22 03:19:39;;;;;;;7.97;4.25;;;9.40;99.90;;;;;;5034442;28;20083;-83
2022/05/22 03:22:07;;;;;;;7.78;4.30;;;9.30;99.90;;;;;;5032785;28;20148;-83
2022/05/22 03:24:34;;;;;;;6.80;4.65;;;9.30;99.90;;;;;;5032552;28;20049;-84
2022/05/22 03:27:05;;;;;;;8.32;4.20;;;10.00;99.90;;;;;;5032402;28;20107;-83
2022/05/22 03:29:32;;;;;;;8.40;4.70;;;9.00;99.90;;;;;;5032323;28;20087;-85
2022/05/22 03:31:57;;;;;;;5.97;3.90;;;9.50;99.90;;;;;;5033221;28;20076;-82
2022/05/22 03:34:23;;;;;;;8.60;3.63;;;9.30;99.90;;;;;;5033211;28;20075;-82
2022/05/22 03:36:50;;;;;;;11.13;4.32;;;9.10;99.90;;;;;;5033350;28;20128;-84
2022/05/22 03:39:16;;;;;;;9.95;4.18;;;9.30;99.90;;;;;;5032477;28;20038;-83
2022/05/22 03:41:42;;;;;;;6.85;4.18;;;9.10;99.90;;;;;;5033308;28;20504;-84
2022/05/22 03:44:08;;;;;;;11.20;4.70;;;9.70;99.90;;;;;;5032395;28;20052;-83
2022/05/22 03:46:34;;;;;;;10.27;4.53;;;9.40;99.90;;;;;;5033154;28;20038;-82
2022/05/22 03:49:00;;;;;;;7.38;4.47;;;9.30;99.90;;;;;;5015975;28;20049;-83
2022/05/22 03:51:26;;;;;;;7.78;4.18;;;9.30;99.90;;;;;;5033431;28;20084;-82
2022/05/22 03:53:53;;;;;;;7.57;4.15;;;9.40;99.90;;;;;;5032967;28;20558;-83
2022/05/22 03:56:19;;;;;;;7.68;4.38;;;9.30;99.90;;;;;;5031663;28;20045;-83
2022/05/22 03:58:46;;;;;;;13.35;4.70;;;9.30;99.90;;;;;;5032103;28;20433;-83
2022/05/22 04:01:12;;;;;;;8.55;4.30;;;9.20;99.90;;;;;;5031840;28;20050;-84
2022/05/22 04:03:38;;;;;;;11.10;4.72;;;9.30;99.90;;;;;;5034935;28;20390;-82
2022/05/22 04:06:06;;;;;;;8.30;4.60;;;9.30;99.90;;;;;;5036653;28;20037;-83
2022/05/22 04:08:32;;;;;;;8.45;4.65;;;9.10;99.90;;;;;;5037100;28;20407;-83
2022/05/22 04:11:05;;;;;;;7.57;4.32;;;9.40;99.90;;;;;;5037251;28;20135;-85
2022/05/22 04:13:31;;;;;;;8.68;4.90;;;9.20;99.90;;;;;;5037158;28;20382;-83
2022/05/22 04:15:57;;;;;;;10.43;4.63;;;9.20;99.90;;;;;;5036132;28;20048;-84
2022/05/22 04:18:22;;;;;;;8.13;4.40;;;9.30;99.90;;;;;;5019717;28;20513;-84
2022/05/22 04:20:48;;;;;;;8.82;4.45;;;9.50;99.90;;;;;;5037133;28;20045;-85
2022/05/22 04:25:59;;;;;;;9.48;4.57;;;9.40;99.90;;;;;;5036352;28;20052;-83
2022/05/22 04:28:26;;;;;;;7.65;4.38;;;9.40;99.90;;;;;;5036855;28;20049;-83
2022/05/22 04:30:52;;;;;;;10.07;4.82;;;9.70;99.90;;;;;;5036839;28;20052;-82
2022/05/22 04:33:18;;;;;;;8.82;4.70;;;9.40;99.90;;;;;;5036799;28;20129;-84
2022/05/22 04:35:44;;;;;;;7.28;4.78;;;9.60;99.90;;;;;;5036672;28;20134;-84
2022/05/22 04:38:11;;;;;;;10.65;5.40;;;9.70;99.90;;;;;;5036735;28;20517;-83
2022/05/22 04:40:41;;;;;;;10.90;5.00;;;9.70;99.90;;;;;;5035426;28;20558;-82
2022/05/22 04:43:09;;;;;;;9.02;4.43;;;9.60;99.90;;;;;;5036733;28;20045;-84
2022/05/22 04:45:39;;;;;;;11.15;5.45;;;10.00;99.90;;;;;;5035461;28;20041;-84
2022/05/22 04:48:06;;;;;;;11.48;5.05;;;10.00;99.90;;;;;;5036341;28;20516;-83
2022/05/22 04:50:32;;;;;;;8.35;4.90;;;10.00;99.90;;;;;;5035543;28;20465;-84
2022/05/22 04:52:58;;;;;;;12.82;5.43;;;9.90;99.90;;;;;;5036614;28;20056;-82
2022/05/22 04:55:24;;;;;;;9.25;4.65;;;10.00;99.90;;;;;;5035795;28;20955;-84
2022/05/22 04:57:50;;;;;;;14.43;5.68;;;10.60;99.90;;;;;;5035210;28;20060;-84
2022/05/22 05:00:16;;;;;;;12.95;5.88;;;10.70;99.90;;;;;;5035479;28;20401;-83
2022/05/22 05:02:42;;;;;;;14.80;5.38;;;10.10;99.90;;;;;;5036410;28;20098;-83
2022/05/22 05:05:11;;;;;;;11.93;5.35;;;10.10;99.90;;;;;;5035143;28;20485;-82
2022/05/22 05:07:43;;;;;;;10.73;5.38;;;10.10;99.90;;;;;;5034952;28;20448;-82
2022/05/22 05:10:10;;;;;;;10.25;5.63;;;10.40;99.90;;;;;;5034943;28;20098;-84
2022/05/22 05:12:38;;;;;;;8.60;4.82;;;10.50;99.90;;;;;;5036222;28;20041;-84
2022/05/22 05:15:06;;;;;;;9.25;5.03;;;10.60;99.90;;;;;;5035855;28;20053;-83
2022/05/22 05:17:32;;;;;;;10.60;5.82;;;10.40;99.90;;;;;;5018154;28;20405;-83
2022/05/22 05:19:58;;;;;;;12.57;5.32;;;10.60;99.90;;;;;;5034983;28;20051;-82
2022/05/22 05:22:23;;;;;;;12.85;5.40;;;10.30;99.90;;;;;;5034674;28;20481;-83
2022/05/22 05:24:49;;;;;;;12.02;5.38;;;10.70;99.90;;;;;;5035060;28;20111;-83
2022/05/22 05:27:15;;;;;;;8.88;5.15;;;10.60;99.90;;;;;;5035346;28;20508;-83
2022/05/22 05:29:40;;;;;;;15.00;5.47;;;10.60;99.90;;;;;;5035178;28;20068;-83
2022/05/22 05:32:07;;;;;;;10.73;4.65;;;10.60;99.90;;;;;;5035864;28;20049;-82
2022/05/22 05:34:33;;;;;;;11.57;5.45;;;10.70;99.90;;;;;;5035711;28;20049;-82
2022/05/22 05:36:59;;;;;;;13.18;5.65;;;10.90;99.90;;;;;;5035370;28;20042;-81
2022/05/22 05:39:27;;;;;;;11.32;5.85;;;10.80;99.90;;;;;;5035674;28;20076;-83
2022/05/22 05:41:56;;;;;;;12.10;5.03;;;11.00;99.90;;;;;;5035761;28;20053;-83
2022/05/22 05:44:22;;;;;;;16.83;6.18;;;10.90;99.90;;;;;;5034605;28;20050;-83
2022/05/22 05:46:48;;;;;;;12.32;5.45;;;11.10;99.90;;;;;;5035429;28;20398;-83
2022/05/22 05:49:14;;;;;;;11.98;5.35;;;11.00;99.90;;;;;;5034107;28;20497;-83
2022/05/22 05:51:40;;;;;;;10.85;5.57;;;11.10;99.90;;;;;;5034991;28;20053;-82
2022/05/22 05:54:06;;;;;;;15.63;5.70;;;11.30;99.90;;;;;;5033999;28;20080;-82
2022/05/22 05:56:36;;;;;;;10.10;5.38;;;11.20;99.90;;;;;;5033525;28;20474;-82
2022/05/22 05:59:01;;;;;;;15.48;5.70;;;11.30;99.90;;;;;;5035162;28;20501;-82
2022/05/22 06:01:27;;;;;;;14.93;5.50;;;11.30;99.90;;;;;;5035279;28;20056;-82
2022/05/22 06:03:53;;;;;;;17.17;7.13;;;11.50;99.90;;;;;;5035165;28;20446;-81
2022/05/22 06:06:20;;;;;;;17.10;7.07;;;11.40;99.90;;;;;;5035023;28;20045;-82
2022/05/22 06:08:45;;;;;;;12.95;6.40;;;11.40;99.90;;;;;;5034270;28;20080;-82
2022/05/22 06:11:11;;;;;;;12.18;6.00;;;11.60;99.90;;;;;;5033972;28;20084;-83
2022/05/22 06:13:39;;;;;;;12.13;5.22;;;11.60;99.90;;;;;;5034983;28;20054;-84
2022/05/22 06:16:06;;;;;;;11.80;5.00;;;11.70;99.90;;;;;;5033710;28;20046;-83
2022/05/22 06:18:32;;;;;;;8.43;4.57;;;11.70;99.90;;;;;;5034721;28;20048;-82
2022/05/22 06:20:58;;;;;;;10.85;4.32;;;11.80;99.90;;;;;;5034592;28;20132;-81
2022/05/22 06:23:24;;;;;;;11.57;5.10;;;11.80;99.90;;;;;;5033862;28;20478;-84
2022/05/22 06:25:50;;;;;;;12.88;5.20;;;11.90;99.90;;;;;;5016375;28;20076;-84
2022/05/22 06:28:17;;;;;;;11.90;5.55;;;11.90;99.90;;;;;;5033347;28;20405;-83
2022/05/22 06:30:43;;;;;;;11.57;5.57;;;12.00;99.90;;;;;;5034526;28;20485;-84
2022/05/22 06:33:11;;;;;;;12.32;5.32;;;12.00;99.90;;;;;;5033580;28;20049;-84
2022/05/22 06:35:41;;;;;;;13.73;6.60;;;12.00;99.90;;;;;;5033557;28;20041;-83
2022/05/22 06:38:08;;;;;;;13.57;5.47;;;12.10;99.90;;;;;;5033578;28;20052;-83
2022/05/22 06:40:37;;;;;;;15.40;4.93;;;12.10;99.90;;;;;;5033600;28;20132;-84
2022/05/22 06:43:02;;;;;;;15.25;6.18;;;12.20;99.90;;;;;;5034462;28;20072;-83
2022/05/22 06:45:29;;;;;;;17.42;6.43;;;12.30;99.90;;;;;;5034475;28;20037;-83
2022/05/22 06:47:54;;;;;;;16.17;6.53;;;12.20;99.90;;;;;;5016880;28;20437;-82
2022/05/22 06:50:24;;;;;;;13.65;6.38;;;12.30;99.90;;;;;;5034318;28;20045;-84
2022/05/22 06:52:52;;;;;;;14.25;5.72;;;12.50;99.90;;;;;;5016688;28;20061;-84
2022/05/22 06:55:18;;;;;;;13.82;6.07;;;12.40;99.90;;;;;;5032585;28;20092;-83
2022/05/22 06:57:44;;;;;;;14.25;5.38;;;12.50;99.90;;;;;;5032778;28;20077;-85
2022/05/22 07:00:14;;;;;;;13.95;5.28;;;12.60;99.90;;;;;;5032711;28;20482;-85
2022/05/22 07:02:40;;;;;;;11.27;5.55;;;12.70;99.90;;;;;;5033885;28;20043;-84
2022/05/22 07:05:08;;;;;;;16.73;5.82;;;12.60;99.90;;;;;;5034355;28;20098;-82
2022/05/22 07:07:34;;;;;;;13.52;5.00;;;12.70;99.90;;;;;;5032811;28;20041;-83
2022/05/22 07:10:00;;;;;;;14.65;5.22;;;12.90;99.90;;;;;;5034149;28;20409;-83
2022/05/22 07:12:25;;;;;;;14.52;5.13;;;12.70;99.90;;;;;;5033853;28;20524;-83
2022/05/22 07:14:56;;;;;;;13.32;5.53;;;12.90;99.90;;;;;;5032566;28;20045;-82
2022/05/22 07:17:24;;;;;;;12.20;5.32;;;12.90;99.90;;;;;;5032434;28;20050;-85
2022/05/22 07:19:55;;;;;;;14.95;5.43;;;13.00;99.90;;;;;;5033967;28;20049;-84
2022/05/22 07:22:21;;;;;;;12.00;4.93;;;13.10;99.90;;;;;;5033853;28;20065;-83
2022/05/22 07:24:46;;;;;;;14.43;5.53;;;13.10;99.90;;;;;;5033770;28;20049;-83
2022/05/22 07:27:12;;;;;;;13.73;4.63;;;13.10;99.90;;;;;;5032362;28;20049;-84
2022/05/22 07:29:38;;;;;;;10.88;4.70;;;13.20;99.90;;;;;;5033504;28;20049;-85
2022/05/22 07:32:04;;;;;;;10.52;4.43;;;13.40;99.90;;;;;;5032672;28;20133;-82
2022/05/22 07:34:31;;;;;;;13.73;4.15;;;13.30;99.90;;;;;;5029406;28;20426;-75
2022/05/22 07:36:59;;;;;;;11.52;4.55;;;13.60;99.90;;;;;;5022333;28;20048;-75
2022/05/22 07:39:25;;;;;;;10.88;4.72;;;13.40;99.90;;;;;;5024417;28;20045;-75
2022/05/22 07:41:51;;;;;;;8.27;3.85;;;13.50;99.90;;;;;;5023351;28;20055;-74
2022/05/22 07:44:17;;;;;;;9.18;3.67;;;13.60;99.90;;;;;;5022033;28;20054;-75
2022/05/22 07:46:43;;;;;;;8.50;4.32;;;13.90;99.90;;;;;;5022234;28;20145;-75
2022/05/22 07:49:08;;;;;;;7.85;3.55;;;13.80;99.90;;;;;;5022538;28;20049;-76
2022/05/22 07:51:34;;;;;;;6.65;3.15;;;13.80;99.90;;;;;;5031859;28;20049;-77
2022/05/22 07:54:00;;;;;;;6.57;2.80;;;14.10;99.90;;;;;;5032299;28;20053;-75
2022/05/22 07:56:26;;;;;;;8.10;2.72;;;13.90;99.90;;;;;;5031951;28;20099;-75
2022/05/22 07:58:51;;;;;;;10.30;3.75;;;14.10;99.90;;;;;;5015765;28;20394;-76
2022/05/22 08:01:18;;;;;;;8.75;3.60;;;14.10;99.90;;;;;;5033449;28;20052;-75
2022/05/22 08:03:45;;;;;;;12.00;4.13;;;14.10;99.90;;;;;;5033408;28;20056;-75
2022/05/22 08:06:11;;;;;;;9.13;4.07;;;14.20;99.90;;;;;;5015987;28;20084;-76
2022/05/22 08:08:37;;;;;;;10.07;3.72;;;14.40;99.90;;;;;;5033301;28;20406;-75
2022/05/22 08:11:04;;;;;;;10.23;4.70;;;14.40;99.90;;;;;;5031921;28;20050;-76
2022/05/22 08:13:30;;;;;;;13.85;4.57;;;14.60;99.90;;;;;;5033011;28;20156;-76
2022/05/22 08:15:55;;;;;;;8.15;3.65;;;14.70;99.90;;;;;;5031921;28;20489;-76
2022/05/22 08:18:21;;;;;;;6.45;3.00;;;14.60;99.90;;;;;;5049328;28;20053;-76
2022/05/22 08:20:49;;;;;;;7.55;3.05;;;14.60;99.90;;;;;;5033022;28;20054;-76
2022/05/22 08:23:21;;;;;;;7.15;2.30;;;14.50;99.90;;;;;;5031994;28;20060;-76
2022/05/22 08:25:48;;;;;;;7.53;2.70;;;14.70;99.90;;;;;;5031848;28;20056;-76
2022/05/22 08:28:13;;;;;;;8.77;2.95;;;14.60;99.90;;;;;;5032906;28;20053;-75
2022/05/22 08:30:40;;;;;;;3.17;1.63;;;14.50;99.90;;;;;;5015805;28;20440;-73
2022/05/22 08:33:07;;;;;;;5.93;1.90;;;14.60;99.90;;;;;;5033046;28;20046;-74
2022/05/22 08:35:36;;;;;;;5.30;1.75;;;14.70;99.90;;;;;;5032483;28;20107;-73
2022/05/22 08:38:02;;;;;;;7.15;1.90;;;14.70;99.90;;;;;;5048307;28;20041;-73
2022/05/22 08:40:50;;;;;;;6.57;1.73;;;14.70;99.90;;;;;;5032839;28;20390;-76
2022/05/22 08:43:31;;;;;;;6.45;1.95;;;14.80;99.90;;;;;;5022860;28;20053;-79
2022/05/22 08:46:00;;;;;;;6.13;1.83;;;15.10;99.90;;;;;;5023286;28;20077;-75
2022/05/22 08:48:40;;;;;;;9.23;2.08;;;15.00;99.90;;;;;;5028845;28;20061;-75
2022/05/22 08:51:15;;;;;;;5.10;2.05;;;15.20;99.90;;;;;;5028053;28;20091;-75
2022/05/22 08:53:48;;;;;;;6.70;2.10;;;15.20;99.90;;;;;;5029923;28;20062;-73
2022/05/22 08:59:08;;;;;;;7.78;2.97;;;15.40;99.90;;;;;;5029537;28;20061;-75
2022/05/22 09:02:10;;;;;;;7.55;2.20;;;15.50;99.90;;;;;;5026352;28;20041;-75
2022/05/22 09:05:14;;;;;;;6.88;1.73;;;15.30;99.90;;;;;;5030400;28;20167;-73
2022/05/22 09:08:03;;;;;;;6.60;2.33;;;15.40;99.90;;;;;;5033825;28;20050;-75
2022/05/22 09:11:01;;;;;;;4.20;1.80;;;15.40;99.90;;;;;;5035433;28;20401;-73
2022/05/22 09:13:35;;;;;;;5.28;2.15;;;15.40;99.90;;;;;;5036225;28;20561;-74
2022/05/22 09:16:04;;;;;;;8.07;2.10;;;15.40;99.90;;;;;;5035773;28;20057;-74
2022/05/22 09:18:36;;;;;;;7.13;1.80;;;15.50;99.90;;;;;;5036375;28;20045;-73
2022/05/22 09:21:05;;;;;;;;;;;15.60;99.90;;;;;;5036885;28;20052;-74
2022/05/22 09:23:52;;;;;;;4.75;1.42;;;15.70;99.90;;;;;;5034959;28;19925;-73
2022/05/22 09:26:25;;;;;;;6.40;1.65;;;15.70;99.90;;;;;;5035286;28;20125;-75
2022/05/22 09:29:17;;;;;;;6.78;1.80;;;15.80;99.90;;;;;;5034433;28;20045;-73
2022/05/22 09:32:10;;;;;;;6.53;1.77;;;16.00;99.90;;;;;;5034577;28;20045;-74
2022/05/22 09:35:16;;;;;;;5.03;1.88;;;16.10;99.90;;;;;;5034718;28;20128;-74
2022/05/22 09:37:59;;;;;;;9.15;1.90;;;16.10;99.90;;;;;;5033487;28;20485;-73
2022/05/22 09:40:37;;;;;;;5.72;1.50;;;16.10;99.90;;;;;;5031460;28;20049;-74
2022/05/22 09:43:11;;;;;;;5.78;1.48;;;16.00;99.90;;;;;;5033724;28;20050;-75
2022/05/22 09:46:09;;;;;;;4.15;1.13;;;16.10;99.90;;;;;;5033583;28;20047;-74
2022/05/22 09:49:00;;;;;;;4.53;1.30;;;16.20;99.90;;;;;;5031365;28;20057;-74
2022/05/22 09:51:57;;;;;;;4.78;1.17;;;16.30;99.90;;;;;;5022710;28;20041;-74
2022/05/22 09:54:48;;;;;;;3.70;1.30;;;16.40;99.90;;;;;;5034294;28;20801;-74
2022/05/22 09:57:51;;;;;;;6.18;1.23;;;16.50;99.90;;;;;;5033777;28;20112;-75
2022/05/22 10:00:27;;;;;;;4.38;1.25;;;16.40;99.90;;;;;;5033419;28;20096;-74
2022/05/22 10:03:52;;;;;;;7.07;1.48;;;16.40;99.90;;;;;;5034481;28;20052;-74
2022/05/22 10:06:36;;;;;;;5.97;1.38;;;16.50;99.90;;;;;;4963574;28;20427;-75
2022/05/22 10:09:17;;;;;;;4.47;1.10;;;16.40;99.90;;;;;;4992936;28;20097;-74
2022/05/22 10:12:13;;;;;;;3.95;1.00;;;16.30;99.90;;;;;;5027131;28;20083;-74
2022/05/22 10:15:02;;;;;;;5.68;1.20;;;16.50;99.90;;;;;;5033849;28;20057;-75
2022/05/22 10:17:34;;;;;;;4.22;1.60;;;16.50;99.90;;;;;;5033823;28;20053;-73
2022/05/22 10:20:41;;;;;;;5.43;1.10;;;16.40;99.90;;;;;;5016618;28;20049;-73
2022/05/22 10:23:22;;;;;;;7.90;1.50;;;16.40;99.90;;;;;;5013820;28;20405;-74
2022/05/22 10:26:04;;;;;;;5.10;1.60;;;16.70;99.90;;;;;;5033821;28;20053;-74
2022/05/22 10:28:46;;;;;;;3.63;1.13;;;16.80;99.90;;;;;;5032342;28;20246;-74
2022/05/22 10:31:15;;;;;;;4.60;1.40;;;16.80;99.90;;;;;;5034272;28;20052;-74
2022/05/22 10:34:06;;;;;;;5.72;1.38;;;16.90;99.90;;;;;;5032909;28;20523;-75
2022/05/22 10:36:45;;;;;;;4.03;1.00;;;16.90;99.90;;;;;;5034306;28;20042;-73
2022/05/22 10:39:13;;;;;;;3.03;1.00;;;16.90;99.90;;;;;;5034441;28;20053;-74
2022/05/22 10:44:35;;;;;;;4.20;1.20;;;16.80;99.90;;;;;;5034541;28;20053;-73
2022/05/22 10:47:02;;;;;;;4.95;1.60;;;16.90;99.90;;;;;;5033508;28;20126;-73
2022/05/22 10:49:43;;;;;;;4.97;1.10;;;17.00;99.90;;;;;;5016921;28;20045;-73
2022/05/22 10:52:12;;;;;;;5.95;1.52;;;16.90;99.90;;;;;;5033059;28;20128;-73
2022/05/22 10:54:50;;;;;;;3.55;0.90;;;17.00;99.90;;;;;;5033314;28;20519;-73
2022/05/22 10:57:30;;;;;;;6.30;1.27;;;16.80;99.90;;;;;;5032740;28;20134;-73
2022/05/22 10:59:57;;;;;;;5.45;1.08;;;16.70;99.90;;;;;;5033110;28;20050;-72
2022/05/22 11:02:27;;;;;;;4.55;1.10;;;16.80;99.90;;;;;;5033886;28;20574;-73
2022/05/22 11:04:55;;;;;;;7.63;1.45;;;16.80;99.90;;;;;;5034248;28;20409;-73
2022/05/22 11:07:30;;;;;;;3.10;0.80;;;16.70;99.90;;;;;;5033998;28;20049;-73
2022/05/22 11:10:08;;;;;;;4.70;1.58;;;16.90;99.90;;;;;;5033978;28;20050;-72
2022/05/22 11:12:34;;;;;;;5.10;1.02;;;16.90;99.90;;;;;;5033518;28;20228;-72
2022/05/22 11:15:28;;;;;;;5.25;1.42;;;17.60;99.90;;;;;;5032696;28;20505;-72
2022/05/22 11:18:19;;;;;;;5.95;1.33;;;16.80;99.90;;;;;;5026456;28;20053;-73
2022/05/22 11:21:01;;;;;;;4.40;1.50;;;16.80;99.90;;;;;;5032644;28;20057;-73
2022/05/22 11:23:33;;;;;;;3.33;1.15;;;17.00;99.90;;;;;;5033678;28;20049;-74
2022/05/22 11:26:29;;;;;;;4.63;1.10;;;16.80;99.90;;;;;;5033407;28;20124;-73
2022/05/22 11:29:07;;;;;;;5.65;1.35;;;16.90;99.90;;;;;;5033609;28;20100;-72
2022/05/22 11:31:38;;;;;;;4.70;1.23;;;16.80;99.90;;;;;;5033531;28;20432;-73
2022/05/22 11:34:28;;;;;;;4.40;0.95;;;17.00;99.90;;;;;;5016032;28;20046;-74
2022/05/22 11:36:54;;;;;;;4.85;1.20;;;17.00;99.90;;;;;;5016049;28;20048;-73
2022/05/22 11:39:29;;;;;;;5.63;1.30;;;17.00;99.90;;;;;;5033351;28;20214;-73
2022/05/22 11:42:01;;;;;;;4.70;1.02;;;17.20;99.90;;;;;;5033237;28;20482;-74
2022/05/22 11:44:26;;;;;;;6.25;1.20;;;17.20;99.90;;;;;;5032754;28;20509;-72
2022/05/22 11:47:01;;;;;;;5.22;1.02;;;17.40;99.90;;;;;;5032479;28;20085;-72
2022/05/22 11:49:38;;;;;;;4.43;1.33;;;17.60;99.90;;;;;;5032524;28;20508;-73
2022/05/22 11:52:10;;;;;;;4.18;1.02;;;17.60;99.90;;;;;;5033441;28;20477;-72
2022/05/22 11:54:42;;;;;;;5.85;1.50;;;17.70;99.90;;;;;;5033046;28;20128;-73
2022/05/22 11:57:33;;;;;;;2.15;0.80;;;17.80;99.90;;;;;;5033074;28;20092;-72
2022/05/22 12:00:03;;;;;;;5.70;1.17;;;17.70;99.90;;;;;;5033370;28;20049;-72
2022/05/22 12:03:14;;;;;;;5.32;1.00;;;17.70;99.90;;;;;;5033314;28;20046;-72
2022/05/22 12:06:17;;;;;;;2.92;1.00;;;17.80;99.90;;;;;;5031025;28;20397;-72
2022/05/22 12:09:10;;;;;;;4.47;1.10;;;17.80;99.90;;;;;;5033345;28;20107;-72
2022/05/22 12:11:54;;;;;;;;;;;17.80;99.90;;;;;;5033658;28;20512;-73
2022/05/22 12:14:23;;;;;;;3.25;1.23;;;18.10;99.90;;;;;;5033194;28;19932;-72
2022/05/22 12:16:54;;;;;;;4.60;1.23;;;18.10;99.90;;;;;;5031981;28;20512;-73
2022/05/22 12:19:20;;;;;;;3.63;1.00;;;18.20;99.90;;;;;;5032098;28;20265;-73
2022/05/22 12:21:49;;;;;;;4.40;1.10;;;18.40;99.90;;;;;;5031909;28;20053;-73
2022/05/22 12:24:15;;;;;;;4.57;0.90;;;18.40;99.90;;;;;;5032834;28;20124;-73
2022/05/22 12:26:42;;;;;;;1.75;0.70;;;18.40;99.90;;;;;;5036568;28;20128;-73
2022/05/22 12:29:15;;;;;;;4.00;0.85;;;18.40;99.90;;;;;;5035992;28;20049;-72
2022/05/22 12:31:48;;;;;;;4.13;0.85;;;18.60;99.90;;;;;;5036832;28;20054;-72
2022/05/22 12:34:23;;;;;;;2.67;1.05;;;18.80;99.90;;;;;;5036835;28;20567;-73
2022/05/22 12:36:53;;;;;;;2.95;0.85;;;18.90;99.90;;;;;;5037031;28;20045;-72
2022/05/22 12:39:22;;;;;;;3.88;1.00;;;18.90;99.90;;;;;;5035606;28;20052;-72
2022/05/22 12:41:53;;;;;;;3.92;0.70;;;19.00;99.90;;;;;;5032638;28;20053;-74
2022/05/22 12:44:20;;;;;;;2.73;0.70;;;19.00;99.90;;;;;;5031950;28;20049;-75
2022/05/22 12:46:47;;;;;;;3.80;0.70;;;19.00;99.90;;;;;;5031648;28;20409;-74
2022/05/22 12:49:58;;;;;;;2.67;0.80;;;19.10;99.90;;;;;;5032156;28;20492;-73
2022/05/22 12:52:24;;;;;;;3.50;1.13;;;19.10;99.90;;;;;;5010975;28;20449;-75
2022/05/22 12:55:09;;;;;;;4.40;0.80;;;19.40;99.90;;;;;;5031484;28;20064;-73
2022/05/22 12:57:36;;;;;;;2.38;0.60;;;19.30;99.90;;;;;;5031421;28;20175;-74
2022/05/22 13:00:30;;;;;;;2.90;0.70;;;19.30;99.90;;;;;;5031989;28;20045;-75
2022/05/22 13:03:08;;;;;;;2.83;0.75;;;19.40;99.90;;;;;;5028437;28;20069;-73
2022/05/22 13:05:35;;;;;;;6.13;1.00;;;19.30;99.90;;;;;;5022901;28;20119;-73
2022/05/22 13:08:01;;;;;;;3.20;0.60;;;19.30;99.90;;;;;;5035913;28;20046;-73
2022/05/22 13:10:53;;;;;;;2.25;0.80;;;19.40;99.90;;;;;;5021832;28;20046;-73
2022/05/22 13:13:32;;;;;;;2.30;0.60;;;19.40;99.90;;;;;;5023744;28;20048;-73
2022/05/22 13:16:07;;;;;;;4.22;0.65;;;19.30;99.90;;;;;;5020893;28;20048;-74
2022/05/22 13:18:44;;;;;;;1.60;0.70;;;19.40;99.90;;;;;;5023279;28;20187;-73
2022/05/22 13:21:09;;;;;;;4.10;0.80;;;19.30;99.90;;;;;;5022679;28;20045;-72